createdAt,value
2018-09-15T00:01:22.257Z,4.20
2018-09-15T00:03:49.673Z,4.00
2018-09-15T00:06:17.091Z,3.83
2018-09-15T00:08:44.502Z,3.13
2018-09-15T00:11:11.922Z,6.47
2018-09-15T00:13:39.331Z,2.70
2018-09-15T00:16:06.749Z,3.13
2018-09-15T00:18:34.177Z,2.33
2018-09-15T00:21:01.611Z,4.87
2018-09-15T00:23:29.019Z,4.47
2018-09-15T00:25:56.449Z,3.23
2018-09-15T00:28:23.857Z,5.40
2018-09-15T00:30:51.280Z,5.00
2018-09-15T00:33:18.685Z,5.33
2018-09-15T00:35:46.117Z,4.97
2018-09-15T00:38:13.547Z,3.33
2018-09-15T00:40:40.948Z,4.40
2018-09-15T00:43:08.384Z,3.83
2018-09-15T00:45:35.799Z,5.27
2018-09-15T00:48:03.219Z,3.60
2018-09-15T00:50:30.633Z,3.13
2018-09-15T00:52:58.045Z,5.17
2018-09-15T00:55:25.472Z,4.07
2018-09-15T00:57:52.908Z,3.27
2018-09-15T01:00:20.331Z,6.77
2018-09-15T01:02:47.759Z,3.50
2018-09-15T01:05:15.181Z,4.23
2018-09-15T01:07:42.607Z,4.97
2018-09-15T01:10:10.046Z,5.37
2018-09-15T01:12:37.451Z,8.23
2018-09-15T01:15:04.870Z,3.30
2018-09-15T01:17:32.252Z,4.90
2018-09-15T01:19:59.724Z,5.13
2018-09-15T01:22:27.076Z,4.17
2018-09-15T01:24:54.504Z,5.83
2018-09-15T01:27:21.899Z,5.50
2018-09-15T01:29:49.335Z,3.00
2018-09-15T01:32:16.744Z,3.57
2018-09-15T01:34:44.179Z,4.47
2018-09-15T01:37:11.585Z,3.23
2018-09-15T01:39:39.011Z,5.87
2018-09-15T01:42:06.409Z,3.50
2018-09-15T01:44:33.831Z,7.40
2018-09-15T01:47:01.250Z,6.63
2018-09-15T01:49:28.693Z,4.90
2018-09-15T01:51:56.096Z,6.00
2018-09-15T01:54:23.491Z,8.17
2018-09-15T01:56:50.931Z,7.83
2018-09-15T01:59:18.325Z,4.83
2018-09-15T02:01:45.777Z,3.87
2018-09-15T02:04:13.192Z,5.90
2018-09-15T02:06:40.621Z,8.57
2018-09-15T02:09:08.026Z,6.40
2018-09-15T02:11:35.421Z,6.53
2018-09-15T02:14:02.850Z,6.50
2018-09-15T02:16:30.249Z,8.67
2018-09-15T02:18:57.676Z,6.20
2018-09-15T02:21:25.080Z,9.83
2018-09-15T02:23:52.507Z,5.37
2018-09-15T02:26:19.902Z,8.13
2018-09-15T02:28:47.342Z,4.73
2018-09-15T02:31:14.719Z,5.50
2018-09-15T02:33:42.150Z,5.50
2018-09-15T02:36:09.558Z,6.40
2018-09-15T02:38:36.977Z,8.23
2018-09-15T02:41:04.367Z,6.17
2018-09-15T02:43:31.799Z,7.67
2018-09-15T02:45:59.230Z,7.23
2018-09-15T02:48:26.640Z,5.43
2018-09-15T02:50:54.054Z,8.20
2018-09-15T02:53:21.505Z,10.02
2018-09-15T02:55:48.914Z,11.33
2018-09-15T02:58:16.356Z,7.77
2018-09-15T03:00:43.835Z,8.90
2018-09-15T03:03:11.202Z,8.18
2018-09-15T03:05:38.653Z,7.10
2018-09-15T03:08:06.058Z,6.23
2018-09-15T03:10:33.468Z,8.43
2018-09-15T03:13:00.895Z,6.50
2018-09-15T03:15:28.303Z,9.23
2018-09-15T03:17:55.733Z,8.97
2018-09-15T03:20:23.133Z,8.07
2018-09-15T03:22:50.576Z,4.83
2018-09-15T03:25:17.986Z,7.80
2018-09-15T03:27:45.467Z,7.47
2018-09-15T03:30:12.871Z,8.47
2018-09-15T03:32:40.301Z,7.70
2018-09-15T03:35:07.691Z,9.80
2018-09-15T03:37:35.125Z,8.33
2018-09-15T03:40:02.536Z,12.43
2018-09-15T03:42:29.968Z,10.53
2018-09-15T03:44:57.379Z,8.93
2018-09-15T03:47:24.804Z,7.77
2018-09-15T03:49:52.216Z,8.13
2018-09-15T03:52:19.638Z,8.60
2018-09-15T03:54:47.058Z,7.30
2018-09-15T03:57:14.474Z,8.13
2018-09-15T03:59:41.883Z,10.33
2018-09-15T04:02:09.313Z,9.60
2018-09-15T04:04:36.749Z,11.90
2018-09-15T04:07:04.153Z,10.67
2018-09-15T04:09:31.584Z,10.57
2018-09-15T04:11:58.995Z,10.63
2018-09-15T04:14:26.421Z,9.37
2018-09-15T04:16:53.826Z,15.70
2018-09-15T04:19:21.269Z,12.23
2018-09-15T04:21:48.689Z,11.13
2018-09-15T04:24:16.108Z,9.00
2018-09-15T04:26:43.540Z,8.57
2018-09-15T04:29:10.988Z,12.33
2018-09-15T04:31:38.394Z,9.03
2018-09-15T04:34:05.834Z,11.60
2018-09-15T04:36:33.251Z,15.57
2018-09-15T04:39:00.680Z,10.77
2018-09-15T04:41:28.107Z,12.70
2018-09-15T04:43:55.563Z,14.23
2018-09-15T04:46:22.986Z,12.73
2018-09-15T04:48:50.413Z,11.73
2018-09-15T04:51:17.855Z,11.07
2018-09-15T04:53:45.256Z,14.77
2018-09-15T04:56:12.678Z,13.67
2018-09-15T04:58:40.142Z,11.93
2018-09-15T05:01:07.524Z,11.13
2018-09-15T05:03:34.938Z,16.13
2018-09-15T05:06:02.386Z,13.10
2018-09-15T05:08:29.838Z,12.40
2018-09-15T05:10:57.235Z,14.77
2018-09-15T05:13:24.675Z,11.40
2018-09-15T05:15:52.107Z,16.83
2018-09-15T05:18:19.519Z,11.57
2018-09-15T05:20:46.955Z,11.77
2018-09-15T05:23:14.367Z,15.60
2018-09-15T05:25:41.783Z,9.53
2018-09-15T05:28:09.204Z,15.77
2018-09-15T05:30:36.640Z,9.97
2018-09-15T05:33:04.043Z,14.13
2018-09-15T05:35:31.478Z,11.17
2018-09-15T05:37:58.898Z,18.90
2018-09-15T05:40:26.306Z,13.93
2018-09-15T05:42:53.722Z,10.00
2018-09-15T05:45:21.154Z,18.10
2018-09-15T05:47:48.674Z,13.07
2018-09-15T05:50:16.078Z,12.97
2018-09-15T05:52:43.556Z,17.93
2018-09-15T05:55:10.969Z,14.63
2018-09-15T05:57:38.392Z,16.00
2018-09-15T06:00:05.821Z,14.23
2018-09-15T06:02:33.256Z,13.20
2018-09-15T06:05:00.725Z,17.03
2018-09-15T06:07:28.133Z,19.30
2018-09-15T06:09:55.565Z,12.73
2018-09-15T06:12:22.972Z,16.07
2018-09-15T06:14:50.429Z,15.03
2018-09-15T06:17:17.833Z,21.23
2018-09-15T06:19:45.297Z,22.77
2018-09-15T06:22:12.709Z,19.07
2018-09-15T06:24:40.126Z,15.50
2018-09-15T06:27:07.571Z,13.17
2018-09-15T06:29:34.987Z,18.80
2018-09-15T06:32:02.429Z,18.53
2018-09-15T06:34:29.882Z,16.43
2018-09-15T06:36:57.434Z,16.80
2018-09-15T06:39:24.829Z,24.77
2018-09-15T06:41:52.170Z,16.47
2018-09-15T06:44:19.608Z,15.83
2018-09-15T06:46:47.044Z,11.90
2018-09-15T06:49:14.480Z,15.50
2018-09-15T06:51:41.887Z,12.90
2018-09-15T06:54:09.310Z,12.63
2018-09-15T06:56:36.721Z,13.50
2018-09-15T06:59:04.152Z,13.23
2018-09-15T07:01:31.591Z,13.70
2018-09-15T07:03:59.009Z,12.50
2018-09-15T07:06:26.441Z,15.20
2018-09-15T07:08:53.875Z,11.93
2018-09-15T07:11:21.315Z,9.80
2018-09-15T07:13:48.743Z,14.43
2018-09-15T07:16:16.153Z,13.00
2018-09-15T07:18:43.581Z,9.73
2018-09-15T07:21:10.988Z,10.90
2018-09-15T07:23:38.425Z,12.87
2018-09-15T07:26:05.892Z,14.23
2018-09-15T07:28:33.301Z,13.90
2018-09-15T07:31:00.703Z,11.97
2018-09-15T07:33:28.135Z,14.63
2018-09-15T07:35:55.536Z,10.80
2018-09-15T07:38:22.970Z,12.93
2018-09-15T07:40:50.378Z,11.27
2018-09-15T07:43:17.803Z,9.60
2018-09-15T07:45:45.223Z,9.37
2018-09-15T07:48:12.668Z,14.37
2018-09-15T07:50:40.073Z,12.47
2018-09-15T07:53:07.513Z,9.47
2018-09-15T07:55:34.914Z,11.27
2018-09-15T07:58:02.429Z,10.73
2018-09-15T08:00:29.745Z,9.37
2018-09-15T08:02:57.183Z,10.87
2018-09-15T08:05:24.593Z,10.60
2018-09-15T08:07:52.029Z,12.20
2018-09-15T08:10:19.466Z,10.47
2018-09-15T08:12:46.865Z,10.20
2018-09-15T08:15:14.295Z,13.43
2018-09-15T08:17:41.724Z,9.87
2018-09-15T08:20:09.159Z,10.50
2018-09-15T08:22:36.568Z,9.17
2018-09-15T08:25:04.021Z,9.50
2018-09-15T08:27:31.461Z,11.70
2018-09-15T08:29:58.910Z,10.53
2018-09-15T08:32:26.370Z,8.10
2018-09-15T08:34:56.815Z,8.70
2018-09-15T08:37:24.259Z,12.00
2018-09-15T08:39:51.700Z,9.73
2018-09-15T08:42:19.140Z,9.43
2018-09-15T08:44:46.551Z,13.53
2018-09-15T08:47:13.987Z,13.63
2018-09-15T08:49:41.415Z,8.57
2018-09-15T08:52:08.883Z,10.47
2018-09-15T08:54:36.340Z,9.40
2018-09-15T08:57:03.756Z,10.37
2018-09-15T08:59:31.188Z,8.90
2018-09-15T09:01:58.599Z,10.70
2018-09-15T09:04:26.027Z,14.67
2018-09-15T09:06:53.446Z,8.30
2018-09-15T09:09:20.868Z,9.23
2018-09-15T09:11:48.281Z,10.87
2018-09-15T09:14:15.728Z,9.20
2018-09-15T09:16:43.172Z,8.67
2018-09-15T09:19:10.581Z,7.30
2018-09-15T09:21:38.017Z,7.57
2018-09-15T09:24:05.458Z,10.07
2018-09-15T09:26:32.942Z,12.13
2018-09-15T09:29:00.349Z,8.07
2018-09-15T09:31:27.739Z,6.83
2018-09-15T09:33:55.150Z,5.93
2018-09-15T09:36:22.635Z,5.50
2018-09-15T09:38:50.061Z,5.37
2018-09-15T09:41:17.492Z,6.87
2018-09-15T09:43:44.924Z,4.27
2018-09-15T09:46:12.361Z,8.90
2018-09-15T09:48:39.792Z,5.50
2018-09-15T09:51:07.196Z,8.30
2018-09-15T09:53:34.624Z,5.57
2018-09-15T09:56:02.039Z,3.27
2018-09-15T09:58:29.475Z,2.97
2018-09-15T10:00:56.910Z,5.53
2018-09-15T10:03:24.328Z,6.77
2018-09-15T10:05:54.620Z,5.60
2018-09-15T10:08:22.066Z,5.33
2018-09-15T10:10:49.476Z,7.17
2018-09-15T10:13:16.900Z,4.17
2018-09-15T10:15:44.340Z,3.27
2018-09-15T10:18:11.724Z,5.10
2018-09-15T10:20:39.143Z,3.67
2018-09-15T10:23:06.568Z,3.83
2018-09-15T10:25:33.996Z,4.23
2018-09-15T10:28:01.417Z,5.33
2018-09-15T10:30:28.867Z,6.80
2018-09-15T10:32:56.273Z,6.67
2018-09-15T10:35:23.704Z,5.90
2018-09-15T10:37:53.784Z,4.03
2018-09-15T10:40:21.227Z,5.03
2018-09-15T10:42:48.645Z,5.80
2018-09-15T10:45:16.118Z,2.70
2018-09-15T10:47:43.525Z,6.97
2018-09-15T10:50:10.947Z,4.37
2018-09-15T10:52:38.349Z,6.10
2018-09-15T10:55:05.785Z,3.33
2018-09-15T10:57:33.194Z,4.43
2018-09-15T11:00:00.615Z,6.03
2018-09-15T11:02:28.027Z,6.40
2018-09-15T11:04:55.485Z,4.83
2018-09-15T11:07:22.927Z,4.43
2018-09-15T11:09:50.355Z,5.30
2018-09-15T11:12:17.787Z,4.07
2018-09-15T11:14:45.190Z,6.77
2018-09-15T11:17:12.617Z,2.77
2018-09-15T11:19:40.048Z,5.73
2018-09-15T11:22:07.469Z,2.90
2018-09-15T11:24:34.874Z,4.53
2018-09-15T11:27:02.288Z,4.67
2018-09-15T11:29:29.725Z,4.53
2018-09-15T11:31:57.133Z,4.87
2018-09-15T11:34:24.566Z,3.83
2018-09-15T11:36:52.018Z,4.37
2018-09-15T11:39:19.443Z,4.27
2018-09-15T11:41:46.852Z,4.53
2018-09-15T11:44:14.276Z,3.53
2018-09-15T11:46:41.862Z,6.20
2018-09-15T11:49:09.268Z,4.37
2018-09-15T11:51:36.712Z,5.50
2018-09-15T11:54:04.170Z,6.53
2018-09-15T11:56:31.640Z,4.37
2018-09-15T11:58:59.038Z,4.70
2018-09-15T12:01:26.484Z,3.87
2018-09-15T12:03:53.890Z,3.63
2018-09-15T12:06:21.334Z,5.23
2018-09-15T12:08:48.737Z,4.07
2018-09-15T12:11:16.171Z,2.87
2018-09-15T12:13:43.575Z,6.00
2018-09-15T12:16:11.003Z,3.60
2018-09-15T12:18:38.423Z,5.33
2018-09-15T12:21:05.860Z,4.07
2018-09-15T12:23:33.284Z,3.28
2018-09-15T12:26:00.726Z,5.67
2018-09-15T12:28:28.133Z,3.30
2018-09-15T12:30:55.565Z,5.37
2018-09-15T12:33:23.034Z,8.10
2018-09-15T12:35:50.392Z,5.77
2018-09-15T12:38:17.821Z,5.07
2018-09-15T12:40:45.229Z,5.43
2018-09-15T12:43:12.623Z,5.13
2018-09-15T12:45:40.066Z,4.10
2018-09-15T12:48:07.481Z,6.43
2018-09-15T12:50:34.902Z,5.20
2018-09-15T12:53:02.351Z,5.40
2018-09-15T12:55:29.795Z,4.57
2018-09-15T12:57:57.201Z,3.83
2018-09-15T13:00:24.624Z,5.37
2018-09-15T13:02:52.039Z,3.23
2018-09-15T13:05:19.461Z,8.43
2018-09-15T13:07:46.897Z,4.87
2018-09-15T13:10:14.327Z,6.07
2018-09-15T13:12:41.741Z,3.20
2018-09-15T13:15:09.160Z,3.33
2018-09-15T13:17:36.566Z,4.40
2018-09-15T13:20:03.997Z,4.17
2018-09-15T13:22:31.398Z,4.53
2018-09-15T13:24:58.830Z,3.10
2018-09-15T13:27:26.258Z,7.13
2018-09-15T13:29:53.817Z,4.43
2018-09-15T13:32:21.107Z,1.97
2018-09-15T13:34:48.520Z,4.93
2018-09-15T13:37:15.967Z,6.00
2018-09-15T13:39:43.367Z,6.93
2018-09-15T13:42:10.773Z,2.53
2018-09-15T13:44:38.209Z,2.63
2018-09-15T13:47:05.689Z,4.17
2018-09-15T13:49:33.079Z,9.43
2018-09-15T13:52:00.490Z,5.47
2018-09-15T13:54:27.913Z,4.33
2018-09-15T13:56:55.350Z,3.87
2018-09-15T13:59:22.778Z,3.50
2018-09-15T14:01:50.178Z,3.90
2018-09-15T14:04:17.600Z,4.27
2018-09-15T14:06:45.027Z,7.33
2018-09-15T14:09:12.486Z,4.20
2018-09-15T14:11:39.882Z,4.53
2018-09-15T14:14:07.310Z,5.57
2018-09-15T14:16:34.798Z,3.90
2018-09-15T14:19:02.212Z,2.43
2018-09-15T14:21:29.614Z,6.13
2018-09-15T14:23:57.068Z,3.90
2018-09-15T14:26:24.487Z,10.63
2018-09-15T14:28:51.941Z,3.00
2018-09-15T14:31:19.337Z,2.77
2018-09-15T14:33:46.789Z,3.17
2018-09-15T14:36:14.212Z,3.33
2018-09-15T14:38:41.688Z,5.37
2018-09-15T14:41:09.054Z,5.30
2018-09-15T14:43:36.494Z,5.00
2018-09-15T14:46:03.946Z,6.17
2018-09-15T14:48:31.388Z,3.80
2018-09-15T14:50:58.798Z,5.33
2018-09-15T14:53:26.206Z,2.47
2018-09-15T14:55:53.705Z,4.00
2018-09-15T14:58:21.118Z,5.07
2018-09-15T15:00:48.620Z,3.00
2018-09-15T15:03:15.952Z,4.30
2018-09-15T15:05:43.398Z,3.47
2018-09-15T15:08:10.799Z,3.80
2018-09-15T15:10:38.216Z,3.07
2018-09-15T15:13:05.631Z,5.17
2018-09-15T15:15:33.067Z,3.60
2018-09-15T15:18:00.488Z,3.63
2018-09-15T15:20:27.912Z,7.63
2018-09-15T15:22:55.336Z,3.50
2018-09-15T15:25:22.746Z,3.27
2018-09-15T15:27:50.208Z,3.33
2018-09-15T15:30:17.633Z,4.10
2018-09-15T15:32:45.129Z,4.85
2018-09-15T15:35:12.595Z,4.70
2018-09-15T15:37:40.079Z,5.13
2018-09-15T15:40:07.465Z,5.07
2018-09-15T15:42:34.903Z,6.50
2018-09-15T15:45:02.335Z,4.33
2018-09-15T15:47:29.732Z,5.80
2018-09-15T15:49:57.160Z,5.33
2018-09-15T15:52:24.574Z,4.33
2018-09-15T15:54:52.081Z,2.57
2018-09-15T15:57:20.866Z,2.83
2018-09-15T15:59:46.914Z,5.80
2018-09-15T16:02:14.367Z,3.03
2018-09-15T16:04:41.789Z,5.97
2018-09-15T16:07:09.218Z,6.20
2018-09-15T16:09:36.652Z,6.63
2018-09-15T16:12:04.074Z,9.30
2018-09-15T16:14:31.501Z,5.93
2018-09-15T16:17:00.094Z,5.13
2018-09-15T16:19:27.496Z,5.67
2018-09-15T16:21:55.927Z,3.20
2018-09-15T16:24:23.314Z,4.23
2018-09-15T16:26:50.744Z,4.63
2018-09-15T16:29:18.143Z,5.67
2018-09-15T16:31:45.576Z,5.00
2018-09-15T16:34:12.984Z,4.87
2018-09-15T16:36:40.431Z,4.70
2018-09-15T16:39:07.838Z,5.53
2018-09-15T16:41:35.269Z,3.73
2018-09-15T16:44:02.724Z,2.07
2018-09-15T16:46:30.138Z,3.23
2018-09-15T16:48:57.557Z,3.67
2018-09-15T16:51:24.980Z,2.63
2018-09-15T16:53:52.402Z,4.47
2018-09-15T16:56:19.824Z,3.87
2018-09-15T16:58:47.253Z,3.30
2018-09-15T17:01:14.670Z,5.50
2018-09-15T17:03:42.098Z,3.17
2018-09-15T17:06:09.546Z,5.40
2018-09-15T17:08:36.950Z,4.97
2018-09-15T17:11:04.408Z,4.07
2018-09-15T17:13:34.605Z,5.47
2018-09-15T17:16:02.002Z,3.23
2018-09-15T17:18:29.412Z,4.33
2018-09-15T17:20:56.839Z,7.70
2018-09-15T17:23:24.303Z,4.37
2018-09-15T17:25:51.747Z,6.37
2018-09-15T17:28:19.164Z,5.63
2018-09-15T17:30:46.624Z,3.90
2018-09-15T17:33:14.041Z,3.50
2018-09-15T17:35:41.458Z,5.67
2018-09-15T17:38:08.903Z,4.57
2018-09-15T17:40:36.395Z,5.13
2018-09-15T17:43:03.807Z,4.37
2018-09-15T17:45:31.247Z,4.87
2018-09-15T17:47:58.658Z,6.23
2018-09-15T17:50:26.132Z,6.40
2018-09-15T17:52:53.502Z,9.67
2018-09-15T17:55:20.956Z,5.63
2018-09-15T17:57:48.358Z,4.60
2018-09-15T18:00:15.789Z,4.13
2018-09-15T18:02:43.218Z,2.80
2018-09-15T18:05:10.680Z,6.13
2018-09-15T18:07:38.102Z,6.03
2018-09-15T18:10:05.582Z,6.80
2018-09-15T18:12:32.984Z,5.43
2018-09-15T18:15:00.458Z,4.37
2018-09-15T18:17:27.819Z,5.10
2018-09-15T18:19:55.240Z,5.17
2018-09-15T18:22:22.675Z,7.90
2018-09-15T18:24:50.078Z,6.70
2018-09-15T18:27:17.474Z,7.17
2018-09-15T18:29:44.895Z,9.30
2018-09-15T18:32:12.337Z,6.17
2018-09-15T18:34:39.752Z,4.60
2018-09-15T18:37:07.212Z,3.90
2018-09-15T18:39:34.647Z,6.67
2018-09-15T18:42:02.078Z,5.97
2018-09-15T18:44:29.515Z,3.47
2018-09-15T18:46:56.942Z,4.40
2018-09-15T18:49:24.372Z,7.07
2018-09-15T18:51:51.804Z,3.70
2018-09-15T18:54:19.239Z,8.57
2018-09-15T18:56:46.686Z,4.73
2018-09-15T18:59:14.115Z,7.33
2018-09-15T19:01:41.565Z,4.67
2018-09-15T19:04:08.992Z,3.17
2018-09-15T19:06:36.400Z,5.33
2018-09-15T19:09:03.842Z,6.67
2018-09-15T19:11:31.268Z,5.07
2018-09-15T19:13:58.680Z,3.37
2018-09-15T19:16:26.138Z,4.20
2018-09-15T19:18:53.586Z,5.03
2018-09-15T19:21:21.110Z,7.07
2018-09-15T19:23:48.506Z,4.77
2018-09-15T19:26:15.900Z,6.13
2018-09-15T19:28:43.380Z,4.47
2018-09-15T19:31:10.813Z,5.87
2018-09-15T19:33:38.307Z,4.33
2018-09-15T19:36:05.738Z,6.87
2018-09-15T19:38:33.575Z,6.30
2018-09-15T19:41:01.006Z,4.77
2018-09-15T19:43:28.460Z,8.03
2018-09-15T19:45:55.851Z,5.33
2018-09-15T19:48:23.278Z,8.23
2018-09-15T19:50:50.702Z,5.80
2018-09-15T19:53:18.133Z,4.53
2018-09-15T19:55:45.589Z,7.23
2018-09-15T19:58:13.034Z,5.80
2018-09-15T20:00:40.464Z,5.43
2018-09-15T20:03:07.874Z,4.77
2018-09-15T20:05:35.319Z,6.97
2018-09-15T20:08:02.720Z,8.03
2018-09-15T20:10:30.140Z,8.80
2018-09-15T20:12:57.617Z,5.53
2018-09-15T20:15:24.458Z,9.20
2018-09-15T20:17:51.371Z,7.67
2018-09-15T20:20:18.330Z,7.17
2018-09-15T20:22:45.750Z,5.13
2018-09-15T20:25:13.233Z,7.27
2018-09-15T20:27:40.588Z,7.00
2018-09-15T20:30:08.021Z,7.33
2018-09-15T20:32:35.493Z,6.00
2018-09-15T20:35:02.872Z,4.40
2018-09-15T20:37:30.308Z,7.20
2018-09-15T20:39:57.743Z,4.80
2018-09-15T20:42:25.181Z,4.27
2018-09-15T20:44:52.588Z,7.07
2018-09-15T20:47:20.067Z,5.90
2018-09-15T20:49:47.435Z,5.80
2018-09-15T20:52:14.907Z,9.20
2018-09-15T20:54:42.330Z,7.37
2018-09-15T20:57:09.848Z,5.93
2018-09-15T20:59:37.234Z,5.03
2018-09-15T21:02:04.671Z,5.27
2018-09-15T21:04:32.068Z,6.20
2018-09-15T21:06:59.496Z,5.03
2018-09-15T21:09:26.916Z,6.30
2018-09-15T21:11:54.345Z,4.60
2018-09-15T21:14:21.754Z,5.67
2018-09-15T21:16:49.231Z,6.30
2018-09-15T21:19:16.634Z,4.73
2018-09-15T21:21:44.081Z,6.77
2018-09-15T21:24:11.521Z,5.90
2018-09-15T21:26:38.957Z,5.67
2018-09-15T21:29:06.385Z,5.73
2018-09-15T21:31:33.846Z,6.60
2018-09-15T21:34:01.279Z,6.40
2018-09-15T21:36:28.684Z,7.20
2018-09-15T21:38:56.141Z,6.47
2018-09-15T21:41:23.576Z,6.67
2018-09-15T21:43:51.031Z,5.40
2018-09-15T21:46:18.466Z,6.07
2018-09-15T21:48:45.875Z,6.47
2018-09-15T21:51:13.271Z,5.80
2018-09-15T21:53:40.770Z,5.20
2018-09-15T21:56:08.105Z,6.13
2018-09-15T21:58:35.547Z,6.43
2018-09-15T22:01:02.975Z,8.13
2018-09-15T22:03:30.387Z,4.83
2018-09-15T22:05:57.813Z,9.20
2018-09-15T22:08:25.235Z,4.73
2018-09-15T22:10:52.657Z,5.03
2018-09-15T22:13:20.078Z,6.93
2018-09-15T22:15:47.558Z,10.67
2018-09-15T22:18:14.956Z,7.03
2018-09-15T22:20:42.442Z,8.40
2018-09-15T22:23:09.853Z,6.97
2018-09-15T22:25:37.275Z,7.07
2018-09-15T22:28:04.700Z,9.90
2018-09-15T22:30:32.114Z,9.37
2018-09-15T22:32:59.552Z,8.27
2018-09-15T22:35:26.966Z,7.23
2018-09-15T22:37:54.404Z,9.23
2018-09-15T22:40:21.821Z,6.40
2018-09-15T22:42:49.247Z,11.03
2018-09-15T22:45:16.657Z,6.17
2018-09-15T22:47:44.076Z,7.33
2018-09-15T22:50:11.508Z,11.77
2018-09-15T22:52:38.920Z,9.60
2018-09-15T22:55:06.353Z,10.37
2018-09-15T22:57:33.784Z,8.87
2018-09-15T23:00:01.207Z,8.60
2018-09-15T23:02:28.621Z,8.17
2018-09-15T23:04:56.051Z,8.57
2018-09-15T23:07:23.447Z,7.23
2018-09-15T23:09:50.901Z,10.30
2018-09-15T23:12:18.299Z,9.87
2018-09-15T23:14:45.730Z,8.90
2018-09-15T23:17:13.163Z,10.17
2018-09-15T23:19:40.571Z,9.60
2018-09-15T23:22:07.991Z,8.60
2018-09-15T23:24:35.392Z,9.23
2018-09-15T23:27:02.812Z,7.57
2018-09-15T23:29:30.215Z,8.97
2018-09-15T23:31:57.633Z,7.50
2018-09-15T23:34:25.063Z,10.23
2018-09-15T23:36:52.481Z,8.40
2018-09-15T23:39:19.926Z,10.50
2018-09-15T23:41:47.339Z,12.67
2018-09-15T23:44:14.757Z,10.43
2018-09-15T23:46:42.162Z,11.30
2018-09-15T23:49:09.606Z,11.60
2018-09-15T23:51:37.068Z,10.87
2018-09-15T23:54:04.486Z,8.27
2018-09-15T23:56:31.902Z,8.73
2018-09-15T23:58:59.329Z,13.10
